sensor_id;sensor_type;location;lat;lon;timestamp;temperature;humidity
36444;DHT22;24692;45.642;13.806;2023-06-19T00:02:06;20.90;99.90
36444;DHT22;24692;45.642;13.806;2023-06-19T00:04:32;20.90;99.90
36444;DHT22;24692;45.642;13.806;2023-06-19T00:07:00;20.80;99.90
36444;DHT22;24692;45.642;13.806;2023-06-19T00:09:26;20.80;99.90
36444;DHT22;24692;45.642;13.806;2023-06-19T00:11:52;20.70;99.90
36444;DHT22;24692;45.642;13.806;2023-06-19T00:14:17;20.70;99.90
36444;DHT22;24692;45.642;13.806;2023-06-19T00:16:44;20.70;99.90
36444;DHT22;24692;45.642;13.806;2023-06-19T00:19:10;20.70;99.90
36444;DHT22;24692;45.642;13.806;2023-06-19T00:21:37;20.70;99.90
36444;DHT22;24692;45.642;13.806;2023-06-19T00:24:04;20.70;99.90
36444;DHT22;24692;45.642;13.806;2023-06-19T00:26:29;20.70;99.90
36444;DHT22;24692;45.642;13.806;2023-06-19T00:28:55;20.60;99.90
36444;DHT22;24692;45.642;13.806;2023-06-19T00:31:21;20.60;99.90
36444;DHT22;24692;45.642;13.806;2023-06-19T00:33:47;20.60;99.90
36444;DHT22;24692;45.642;13.806;2023-06-19T00:36:15;20.60;99.90
36444;DHT22;24692;45.642;13.806;2023-06-19T00:38:41;20.60;99.90
36444;DHT22;24692;45.642;13.806;2023-06-19T00:41:07;20.60;99.90
36444;DHT22;24692;45.642;13.806;2023-06-19T00:43:34;20.60;99.90
36444;DHT22;24692;45.642;13.806;2023-06-19T00:46:01;20.60;99.90
36444;DHT22;24692;45.642;13.806;2023-06-19T00:48:28;20.60;99.90
36444;DHT22;24692;45.642;13.806;2023-06-19T00:50:58;20.60;99.90
36444;DHT22;24692;45.642;13.806;2023-06-19T00:53:24;20.50;99.90
36444;DHT22;24692;45.642;13.806;2023-06-19T00:55:53;20.50;99.90
36444;DHT22;24692;45.642;13.806;2023-06-19T00:58:20;20.50;99.90
36444;DHT22;24692;45.642;13.806;2023-06-19T01:00:47;20.50;99.90
36444;DHT22;24692;45.642;13.806;2023-06-19T01:03:13;20.50;99.90
36444;DHT22;24692;45.642;13.806;2023-06-19T01:05:39;20.40;99.90
36444;DHT22;24692;45.642;13.806;2023-06-19T01:08:12;20.40;99.90
36444;DHT22;24692;45.642;13.806;2023-06-19T01:10:55;20.40;99.90
36444;DHT22;24692;45.642;13.806;2023-06-19T01:16:09;20.30;99.90
36444;DHT22;24692;45.642;13.806;2023-06-19T01:18:35;20.30;99.90
36444;DHT22;24692;45.642;13.806;2023-06-19T01:21:11;20.20;99.90
36444;DHT22;24692;45.642;13.806;2023-06-19T01:23:37;20.20;99.90
36444;DHT22;24692;45.642;13.806;2023-06-19T01:26:03;20.20;99.90
36444;DHT22;24692;45.642;13.806;2023-06-19T01:28:29;20.20;99.90
36444;DHT22;24692;45.642;13.806;2023-06-19T01:30:55;20.10;99.90
36444;DHT22;24692;45.642;13.806;2023-06-19T01:33:27;20.20;99.90
36444;DHT22;24692;45.642;13.806;2023-06-19T01:35:55;20.20;99.90
36444;DHT22;24692;45.642;13.806;2023-06-19T01:38:23;20.10;99.90
36444;DHT22;24692;45.642;13.806;2023-06-19T01:40:53;20.10;99.90
36444;DHT22;24692;45.642;13.806;2023-06-19T01:43:20;20.20;99.90
36444;DHT22;24692;45.642;13.806;2023-06-19T01:45:46;20.10;99.90
36444;DHT22;24692;45.642;13.806;2023-06-19T01:48:12;20.10;99.90
36444;DHT22;24692;45.642;13.806;2023-06-19T01:50:38;20.10;99.90
36444;DHT22;24692;45.642;13.806;2023-06-19T01:53:04;20.10;99.90
36444;DHT22;24692;45.642;13.806;2023-06-19T01:55:29;20.20;99.90
36444;DHT22;24692;45.642;13.806;2023-06-19T01:57:55;20.10;99.90
36444;DHT22;24692;45.642;13.806;2023-06-19T02:00:21;20.20;99.90
36444;DHT22;24692;45.642;13.806;2023-06-19T02:02:47;20.20;99.90
36444;DHT22;24692;45.642;13.806;2023-06-19T02:05:13;20.20;99.90
36444;DHT22;24692;45.642;13.806;2023-06-19T02:07:39;20.20;99.90
36444;DHT22;24692;45.642;13.806;2023-06-19T02:10:05;20.20;99.90
36444;DHT22;24692;45.642;13.806;2023-06-19T02:12:31;20.30;99.90
36444;DHT22;24692;45.642;13.806;2023-06-19T02:14:56;20.30;99.90
36444;DHT22;24692;45.642;13.806;2023-06-19T02:17:22;20.30;99.90
36444;DHT22;24692;45.642;13.806;2023-06-19T02:19:47;20.30;99.90
36444;DHT22;24692;45.642;13.806;2023-06-19T02:22:13;20.40;99.90
36444;DHT22;24692;45.642;13.806;2023-06-19T02:24:39;20.40;99.90
36444;DHT22;24692;45.642;13.806;2023-06-19T02:27:05;20.40;99.90
36444;DHT22;24692;45.642;13.806;2023-06-19T02:29:31;20.40;99.90
36444;DHT22;24692;45.642;13.806;2023-06-19T02:31:59;20.40;99.90
36444;DHT22;24692;45.642;13.806;2023-06-19T02:34:25;20.40;99.90
36444;DHT22;24692;45.642;13.806;2023-06-19T02:36:50;20.40;99.90
36444;DHT22;24692;45.642;13.806;2023-06-19T02:39:16;20.30;99.90
36444;DHT22;24692;45.642;13.806;2023-06-19T02:41:42;20.40;99.90
36444;DHT22;24692;45.642;13.806;2023-06-19T02:44:11;20.40;99.90
36444;DHT22;24692;45.642;13.806;2023-06-19T02:46:37;20.40;99.90
36444;DHT22;24692;45.642;13.806;2023-06-19T02:49:03;20.50;99.90
36444;DHT22;24692;45.642;13.806;2023-06-19T02:51:28;20.50;99.90
36444;DHT22;24692;45.642;13.806;2023-06-19T02:53:54;20.40;99.90
36444;DHT22;24692;45.642;13.806;2023-06-19T02:56:20;20.50;99.90
36444;DHT22;24692;45.642;13.806;2023-06-19T02:58:45;20.50;99.90
36444;DHT22;24692;45.642;13.806;2023-06-19T03:01:11;20.50;99.90
36444;DHT22;24692;45.642;13.806;2023-06-19T03:03:37;20.50;99.90
36444;DHT22;24692;45.642;13.806;2023-06-19T03:06:07;20.50;99.90
36444;DHT22;24692;45.642;13.806;2023-06-19T03:08:34;20.40;99.90
36444;DHT22;24692;45.642;13.806;2023-06-19T03:10:59;20.50;99.90
36444;DHT22;24692;45.642;13.806;2023-06-19T03:13:25;20.50;99.90
36444;DHT22;24692;45.642;13.806;2023-06-19T03:15:51;20.40;99.90
36444;DHT22;24692;45.642;13.806;2023-06-19T03:18:16;20.40;99.90
36444;DHT22;24692;45.642;13.806;2023-06-19T03:20:42;20.50;99.90
36444;DHT22;24692;45.642;13.806;2023-06-19T03:23:08;20.50;99.90
36444;DHT22;24692;45.642;13.806;2023-06-19T03:25:33;20.50;99.90
36444;DHT22;24692;45.642;13.806;2023-06-19T03:28:03;20.60;99.90
36444;DHT22;24692;45.642;13.806;2023-06-19T03:30:30;20.50;99.90
36444;DHT22;24692;45.642;13.806;2023-06-19T03:32:56;20.60;99.90
36444;DHT22;24692;45.642;13.806;2023-06-19T03:35:21;20.60;99.90
36444;DHT22;24692;45.642;13.806;2023-06-19T03:37:47;20.50;99.90
36444;DHT22;24692;45.642;13.806;2023-06-19T03:40:12;20.60;99.90
36444;DHT22;24692;45.642;13.806;2023-06-19T03:42:42;20.50;99.90
36444;DHT22;24692;45.642;13.806;2023-06-19T03:45:08;20.50;99.90
36444;DHT22;24692;45.642;13.806;2023-06-19T03:47:34;20.60;99.90
36444;DHT22;24692;45.642;13.806;2023-06-19T03:49:59;20.60;99.90
36444;DHT22;24692;45.642;13.806;2023-06-19T03:52:25;20.50;99.90
36444;DHT22;24692;45.642;13.806;2023-06-19T03:54:50;20.60;99.90
36444;DHT22;24692;45.642;13.806;2023-06-19T03:57:16;20.60;99.90
36444;DHT22;24692;45.642;13.806;2023-06-19T03:59:42;20.60;99.90
36444;DHT22;24692;45.642;13.806;2023-06-19T04:02:07;20.60;99.90
36444;DHT22;24692;45.642;13.806;2023-06-19T04:04:33;20.60;99.90
36444;DHT22;24692;45.642;13.806;2023-06-19T04:06:58;20.70;99.90
36444;DHT22;24692;45.642;13.806;2023-06-19T04:09:27;20.70;99.90
36444;DHT22;24692;45.642;13.806;2023-06-19T04:11:52;20.70;99.90
36444;DHT22;24692;45.642;13.806;2023-06-19T04:14:18;20.80;99.90
36444;DHT22;24692;45.642;13.806;2023-06-19T04:16:44;20.80;99.90
36444;DHT22;24692;45.642;13.806;2023-06-19T04:19:09;20.90;99.90
36444;DHT22;24692;45.642;13.806;2023-06-19T04:21:35;20.90;99.90
36444;DHT22;24692;45.642;13.806;2023-06-19T04:24:01;21.00;99.90
36444;DHT22;24692;45.642;13.806;2023-06-19T04:26:26;21.00;99.90
36444;DHT22;24692;45.642;13.806;2023-06-19T04:28:52;21.00;99.90
36444;DHT22;24692;45.642;13.806;2023-06-19T04:31:17;21.00;99.90
36444;DHT22;24692;45.642;13.806;2023-06-19T04:33:46;21.00;99.90
36444;DHT22;24692;45.642;13.806;2023-06-19T04:36:12;21.10;99.90
36444;DHT22;24692;45.642;13.806;2023-06-19T04:38:37;21.10;99.90
36444;DHT22;24692;45.642;13.806;2023-06-19T04:41:03;21.10;99.90
36444;DHT22;24692;45.642;13.806;2023-06-19T04:43:29;21.10;99.90
36444;DHT22;24692;45.642;13.806;2023-06-19T04:45:54;21.20;99.90
36444;DHT22;24692;45.642;13.806;2023-06-19T04:48:20;21.30;99.90
36444;DHT22;24692;45.642;13.806;2023-06-19T04:50:51;21.40;99.90
36444;DHT22;24692;45.642;13.806;2023-06-19T04:53:16;21.50;99.90
36444;DHT22;24692;45.642;13.806;2023-06-19T04:55:42;21.50;99.90
36444;DHT22;24692;45.642;13.806;2023-06-19T04:58:09;21.60;99.90
36444;DHT22;24692;45.642;13.806;2023-06-19T05:00:34;21.70;99.90
36444;DHT22;24692;45.642;13.806;2023-06-19T05:03:00;21.90;99.90
36444;DHT22;24692;45.642;13.806;2023-06-19T05:05:27;21.90;99.90
36444;DHT22;24692;45.642;13.806;2023-06-19T05:07:53;22.00;99.90
36444;DHT22;24692;45.642;13.806;2023-06-19T05:10:18;22.20;99.90
36444;DHT22;24692;45.642;13.806;2023-06-19T05:12:44;22.20;99.90
36444;DHT22;24692;45.642;13.806;2023-06-19T05:15:10;22.40;99.90
36444;DHT22;24692;45.642;13.806;2023-06-19T05:17:36;22.40;99.90
36444;DHT22;24692;45.642;13.806;2023-06-19T05:20:04;22.60;99.90
36444;DHT22;24692;45.642;13.806;2023-06-19T05:22:32;22.80;99.90
36444;DHT22;24692;45.642;13.806;2023-06-19T05:24:59;22.90;99.90
36444;DHT22;24692;45.642;13.806;2023-06-19T05:27:25;23.10;99.90
36444;DHT22;24692;45.642;13.806;2023-06-19T05:29:51;23.30;99.90
36444;DHT22;24692;45.642;13.806;2023-06-19T05:32:16;23.50;99.90
36444;DHT22;24692;45.642;13.806;2023-06-19T05:34:42;23.70;99.90
36444;DHT22;24692;45.642;13.806;2023-06-19T05:37:07;23.90;99.90
36444;DHT22;24692;45.642;13.806;2023-06-19T05:39:33;24.10;99.90
36444;DHT22;24692;45.642;13.806;2023-06-19T05:41:58;24.30;99.90
36444;DHT22;24692;45.642;13.806;2023-06-19T05:44:24;24.40;99.90
36444;DHT22;24692;45.642;13.806;2023-06-19T05:46:50;24.60;99.90
36444;DHT22;24692;45.642;13.806;2023-06-19T05:49:15;24.80;99.90
36444;DHT22;24692;45.642;13.806;2023-06-19T05:51:41;25.00;99.90
36444;DHT22;24692;45.642;13.806;2023-06-19T05:54:07;25.20;99.90
36444;DHT22;24692;45.642;13.806;2023-06-19T05:56:33;25.40;99.90
36444;DHT22;24692;45.642;13.806;2023-06-19T05:58:59;25.40;99.90
36444;DHT22;24692;45.642;13.806;2023-06-19T06:01:27;25.40;99.90
36444;DHT22;24692;45.642;13.806;2023-06-19T06:03:57;25.40;99.90
36444;DHT22;24692;45.642;13.806;2023-06-19T06:06:23;25.40;99.90
36444;DHT22;24692;45.642;13.806;2023-06-19T06:08:51;25.50;99.90
36444;DHT22;24692;45.642;13.806;2023-06-19T06:11:17;25.50;99.90
36444;DHT22;24692;45.642;13.806;2023-06-19T06:13:43;25.40;99.90
36444;DHT22;24692;45.642;13.806;2023-06-19T06:16:08;25.40;99.90
36444;DHT22;24692;45.642;13.806;2023-06-19T06:18:35;25.30;99.90
36444;DHT22;24692;45.642;13.806;2023-06-19T06:21:00;25.40;99.90
36444;DHT22;24692;45.642;13.806;2023-06-19T06:23:26;25.50;99.90
36444;DHT22;24692;45.642;13.806;2023-06-19T06:25:52;25.50;99.90
36444;DHT22;24692;45.642;13.806;2023-06-19T06:28:17;25.60;99.90
36444;DHT22;24692;45.642;13.806;2023-06-19T06:30:43;25.60;99.90
36444;DHT22;24692;45.642;13.806;2023-06-19T06:33:09;25.50;99.90
36444;DHT22;24692;45.642;13.806;2023-06-19T06:35:35;25.50;99.90
36444;DHT22;24692;45.642;13.806;2023-06-19T06:38:02;25.60;99.90
36444;DHT22;24692;45.642;13.806;2023-06-19T06:40:27;25.70;99.90
36444;DHT22;24692;45.642;13.806;2023-06-19T06:42:53;25.90;99.90
36444;DHT22;24692;45.642;13.806;2023-06-19T06:45:20;26.00;99.90
36444;DHT22;24692;45.642;13.806;2023-06-19T06:47:48;26.00;99.90
36444;DHT22;24692;45.642;13.806;2023-06-19T06:50:15;26.10;99.90
36444;DHT22;24692;45.642;13.806;2023-06-19T06:52:41;26.20;99.90
36444;DHT22;24692;45.642;13.806;2023-06-19T06:55:08;26.20;99.90
36444;DHT22;24692;45.642;13.806;2023-06-19T06:57:36;26.20;99.90
36444;DHT22;24692;45.642;13.806;2023-06-19T07:00:04;26.30;99.90
36444;DHT22;24692;45.642;13.806;2023-06-19T07:02:35;26.30;99.90
36444;DHT22;24692;45.642;13.806;2023-06-19T07:05:00;26.50;99.90
36444;DHT22;24692;45.642;13.806;2023-06-19T07:07:27;26.70;99.90
36444;DHT22;24692;45.642;13.806;2023-06-19T07:09:54;26.80;99.90
36444;DHT22;24692;45.642;13.806;2023-06-19T07:12:25;26.90;99.90
36444;DHT22;24692;45.642;13.806;2023-06-19T07:14:55;26.90;99.90
36444;DHT22;24692;45.642;13.806;2023-06-19T07:17:21;27.00;99.90
36444;DHT22;24692;45.642;13.806;2023-06-19T07:19:48;27.10;99.90
36444;DHT22;24692;45.642;13.806;2023-06-19T07:22:17;27.20;99.90
36444;DHT22;24692;45.642;13.806;2023-06-19T07:24:48;27.30;99.90
36444;DHT22;24692;45.642;13.806;2023-06-19T07:27:16;27.30;99.90
36444;DHT22;24692;45.642;13.806;2023-06-19T07:29:44;27.40;99.90
36444;DHT22;24692;45.642;13.806;2023-06-19T07:32:10;27.40;99.90
36444;DHT22;24692;45.642;13.806;2023-06-19T07:34:39;27.50;99.90
36444;DHT22;24692;45.642;13.806;2023-06-19T07:37:05;27.60;99.90
36444;DHT22;24692;45.642;13.806;2023-06-19T07:39:31;27.70;99.90
36444;DHT22;24692;45.642;13.806;2023-06-19T07:41:57;27.70;99.90
36444;DHT22;24692;45.642;13.806;2023-06-19T07:44:26;27.70;99.90
36444;DHT22;24692;45.642;13.806;2023-06-19T07:46:53;27.70;99.90
36444;DHT22;24692;45.642;13.806;2023-06-19T07:49:19;27.70;99.90
36444;DHT22;24692;45.642;13.806;2023-06-19T07:51:44;27.80;99.90
36444;DHT22;24692;45.642;13.806;2023-06-19T07:54:10;27.90;99.90
36444;DHT22;24692;45.642;13.806;2023-06-19T07:56:37;27.90;99.90
36444;DHT22;24692;45.642;13.806;2023-06-19T07:59:03;28.10;99.90
36444;DHT22;24692;45.642;13.806;2023-06-19T08:01:28;28.20;99.90
36444;DHT22;24692;45.642;13.806;2023-06-19T08:03:54;28.10;99.90
36444;DHT22;24692;45.642;13.806;2023-06-19T08:06:20;28.40;99.90
36444;DHT22;24692;45.642;13.806;2023-06-19T08:08:50;28.60;99.90
36444;DHT22;24692;45.642;13.806;2023-06-19T08:11:18;28.60;99.90
36444;DHT22;24692;45.642;13.806;2023-06-19T08:13:44;28.40;99.90
36444;DHT22;24692;45.642;13.806;2023-06-19T08:16:10;28.30;99.90
36444;DHT22;24692;45.642;13.806;2023-06-19T08:18:44;28.30;99.90
36444;DHT22;24692;45.642;13.806;2023-06-19T08:21:31;28.20;99.90
36444;DHT22;24692;45.642;13.806;2023-06-19T08:23:57;28.10;99.90
36444;DHT22;24692;45.642;13.806;2023-06-19T08:26:24;28.10;99.90
36444;DHT22;24692;45.642;13.806;2023-06-19T08:28:50;28.20;99.90
36444;DHT22;24692;45.642;13.806;2023-06-19T08:31:16;28.10;99.90
36444;DHT22;24692;45.642;13.806;2023-06-19T08:33:43;28.40;99.90
36444;DHT22;24692;45.642;13.806;2023-06-19T08:36:12;28.40;99.90
36444;DHT22;24692;45.642;13.806;2023-06-19T08:38:39;28.50;99.90
36444;DHT22;24692;45.642;13.806;2023-06-19T08:41:09;28.60;99.90
36444;DHT22;24692;45.642;13.806;2023-06-19T08:43:37;28.70;99.90
36444;DHT22;24692;45.642;13.806;2023-06-19T08:46:18;29.00;99.90
36444;DHT22;24692;45.642;13.806;2023-06-19T08:48:54;29.70;99.90
36444;DHT22;24692;45.642;13.806;2023-06-19T08:51:20;29.90;99.90
36444;DHT22;24692;45.642;13.806;2023-06-19T08:53:48;29.70;99.90
36444;DHT22;24692;45.642;13.806;2023-06-19T08:56:19;30.30;99.90
36444;DHT22;24692;45.642;13.806;2023-06-19T08:58:46;30.50;99.90
36444;DHT22;24692;45.642;13.806;2023-06-19T09:01:16;30.40;99.90
36444;DHT22;24692;45.642;13.806;2023-06-19T09:03:42;30.30;99.90
36444;DHT22;24692;45.642;13.806;2023-06-19T09:06:16;30.50;99.90
36444;DHT22;24692;45.642;13.806;2023-06-19T09:08:41;30.70;99.90
36444;DHT22;24692;45.642;13.806;2023-06-19T09:11:08;30.80;99.90
36444;DHT22;24692;45.642;13.806;2023-06-19T09:13:35;31.20;99.90
36444;DHT22;24692;45.642;13.806;2023-06-19T09:16:11;31.10;99.90
36444;DHT22;24692;45.642;13.806;2023-06-19T09:18:48;31.10;99.90
36444;DHT22;24692;45.642;13.806;2023-06-19T09:24:39;31.00;99.90
36444;DHT22;24692;45.642;13.806;2023-06-19T09:27:24;31.30;99.90
36444;DHT22;24692;45.642;13.806;2023-06-19T09:30:00;31.30;99.90
36444;DHT22;24692;45.642;13.806;2023-06-19T09:32:29;30.90;99.90
36444;DHT22;24692;45.642;13.806;2023-06-19T09:35:01;31.10;99.90
36444;DHT22;24692;45.642;13.806;2023-06-19T09:37:29;30.60;99.90
36444;DHT22;24692;45.642;13.806;2023-06-19T09:40:05;31.00;99.90
36444;DHT22;24692;45.642;13.806;2023-06-19T09:42:41;31.60;99.90
36444;DHT22;24692;45.642;13.806;2023-06-19T09:45:28;32.00;99.90
36444;DHT22;24692;45.642;13.806;2023-06-19T09:47:54;31.80;99.90
36444;DHT22;24692;45.642;13.806;2023-06-19T09:50:22;31.40;99.90
36444;DHT22;24692;45.642;13.806;2023-06-19T09:52:52;31.70;99.90
36444;DHT22;24692;45.642;13.806;2023-06-19T09:55:19;32.10;99.90
36444;DHT22;24692;45.642;13.806;2023-06-19T09:57:45;32.40;99.90
36444;DHT22;24692;45.642;13.806;2023-06-19T10:00:12;32.10;99.90
36444;DHT22;24692;45.642;13.806;2023-06-19T10:02:49;32.80;99.90
36444;DHT22;24692;45.642;13.806;2023-06-19T10:05:15;33.00;99.90
36444;DHT22;24692;45.642;13.806;2023-06-19T10:07:43;32.70;99.90
36444;DHT22;24692;45.642;13.806;2023-06-19T10:10:22;32.90;99.90
36444;DHT22;24692;45.642;13.806;2023-06-19T10:12:48;32.90;99.90
36444;DHT22;24692;45.642;13.806;2023-06-19T10:15:25;33.40;99.90
36444;DHT22;24692;45.642;13.806;2023-06-19T10:18:03;33.20;99.60
36444;DHT22;24692;45.642;13.806;2023-06-19T10:20:33;33.40;99.40
36444;DHT22;24692;45.642;13.806;2023-06-19T10:23:15;33.10;99.60
36444;DHT22;24692;45.642;13.806;2023-06-19T10:25:45;33.10;99.80
36444;DHT22;24692;45.642;13.806;2023-06-19T10:28:18;33.40;99.60
36444;DHT22;24692;45.642;13.806;2023-06-19T10:30:44;33.70;99.00
36444;DHT22;24692;45.642;13.806;2023-06-19T10:33:09;33.90;98.60
36444;DHT22;24692;45.642;13.806;2023-06-19T10:35:39;33.80;98.10
36444;DHT22;24692;45.642;13.806;2023-06-19T10:38:05;33.50;98.30
36444;DHT22;24692;45.642;13.806;2023-06-19T10:40:34;33.60;98.10
36444;DHT22;24692;45.642;13.806;2023-06-19T10:43:01;33.70;98.50
36444;DHT22;24692;45.642;13.806;2023-06-19T10:45:27;33.20;97.80
36444;DHT22;24692;45.642;13.806;2023-06-19T10:47:54;33.20;98.60
36444;DHT22;24692;45.642;13.806;2023-06-19T10:50:20;32.80;98.40
36444;DHT22;24692;45.642;13.806;2023-06-19T10:52:46;32.60;98.40
36444;DHT22;24692;45.642;13.806;2023-06-19T10:55:14;32.60;98.40
36444;DHT22;24692;45.642;13.806;2023-06-19T10:57:44;32.60;98.10
36444;DHT22;24692;45.642;13.806;2023-06-19T11:00:10;32.00;98.80
36444;DHT22;24692;45.642;13.806;2023-06-19T11:02:40;31.90;98.60
36444;DHT22;24692;45.642;13.806;2023-06-19T11:05:09;31.90;99.60
36444;DHT22;24692;45.642;13.806;2023-06-19T11:07:35;32.10;99.90
36444;DHT22;24692;45.642;13.806;2023-06-19T11:10:02;32.20;99.90
36444;DHT22;24692;45.642;13.806;2023-06-19T11:12:29;32.20;99.90
36444;DHT22;24692;45.642;13.806;2023-06-19T11:14:54;32.20;99.90
36444;DHT22;24692;45.642;13.806;2023-06-19T11:17:20;32.80;99.90
36444;DHT22;24692;45.642;13.806;2023-06-19T11:19:52;32.50;99.90
36444;DHT22;24692;45.642;13.806;2023-06-19T11:22:17;32.70;99.90
36444;DHT22;24692;45.642;13.806;2023-06-19T11:24:47;33.30;99.90
36444;DHT22;24692;45.642;13.806;2023-06-19T11:27:19;33.70;99.90
36444;DHT22;24692;45.642;13.806;2023-06-19T11:29:45;33.80;99.90
36444;DHT22;24692;45.642;13.806;2023-06-19T11:32:15;32.90;99.90
36444;DHT22;24692;45.642;13.806;2023-06-19T11:34:42;32.80;99.90
36444;DHT22;24692;45.642;13.806;2023-06-19T11:37:16;33.50;99.90
36444;DHT22;24692;45.642;13.806;2023-06-19T11:39:47;33.50;99.90
36444;DHT22;24692;45.642;13.806;2023-06-19T11:42:13;33.40;99.90
36444;DHT22;24692;45.642;13.806;2023-06-19T11:45:02;33.00;99.90
36444;DHT22;24692;45.642;13.806;2023-06-19T11:47:32;33.70;99.90
36444;DHT22;24692;45.642;13.806;2023-06-19T11:49:58;33.50;99.90
36444;DHT22;24692;45.642;13.806;2023-06-19T11:52:25;33.90;99.90
36444;DHT22;24692;45.642;13.806;2023-06-19T11:54:51;33.70;99.90
36444;DHT22;24692;45.642;13.806;2023-06-19T11:57:17;34.00;99.90
36444;DHT22;24692;45.642;13.806;2023-06-19T11:59:42;34.10;99.90
36444;DHT22;24692;45.642;13.806;2023-06-19T12:02:09;34.30;99.90
36444;DHT22;24692;45.642;13.806;2023-06-19T12:04:35;34.30;99.90
36444;DHT22;24692;45.642;13.806;2023-06-19T12:07:01;33.90;99.90
36444;DHT22;24692;45.642;13.806;2023-06-19T12:09:27;34.20;99.90
36444;DHT22;24692;45.642;13.806;2023-06-19T12:11:55;34.40;99.90
36444;DHT22;24692;45.642;13.806;2023-06-19T12:14:21;33.80;99.90
36444;DHT22;24692;45.642;13.806;2023-06-19T12:16:47;33.60;99.90
36444;DHT22;24692;45.642;13.806;2023-06-19T12:19:13;33.60;99.90
36444;DHT22;24692;45.642;13.806;2023-06-19T12:21:39;33.30;99.90
36444;DHT22;24692;45.642;13.806;2023-06-19T12:24:05;33.40;99.90
36444;DHT22;24692;45.642;13.806;2023-06-19T12:26:31;33.30;99.90
36444;DHT22;24692;45.642;13.806;2023-06-19T12:29:02;33.40;99.90
36444;DHT22;24692;45.642;13.806;2023-06-19T12:31:29;33.10;99.90
36444;DHT22;24692;45.642;13.806;2023-06-19T12:33:54;33.40;99.90
36444;DHT22;24692;45.642;13.806;2023-06-19T12:36:20;33.70;99.90
36444;DHT22;24692;45.642;13.806;2023-06-19T12:38:46;33.90;99.90
36444;DHT22;24692;45.642;13.806;2023-06-19T12:41:13;34.00;99.90
36444;DHT22;24692;45.642;13.806;2023-06-19T12:43:38;34.10;99.90
36444;DHT22;24692;45.642;13.806;2023-06-19T12:46:04;34.10;99.90
36444;DHT22;24692;45.642;13.806;2023-06-19T12:48:30;34.10;99.90
36444;DHT22;24692;45.642;13.806;2023-06-19T12:50:56;33.90;99.90
36444;DHT22;24692;45.642;13.806;2023-06-19T12:53:21;33.40;99.90
36444;DHT22;24692;45.642;13.806;2023-06-19T12:55:52;33.50;99.90
36444;DHT22;24692;45.642;13.806;2023-06-19T12:58:18;33.30;99.90
36444;DHT22;24692;45.642;13.806;2023-06-19T13:00:44;33.30;99.90
36444;DHT22;24692;45.642;13.806;2023-06-19T13:03:10;33.70;99.90
36444;DHT22;24692;45.642;13.806;2023-06-19T13:05:35;33.80;99.90
36444;DHT22;24692;45.642;13.806;2023-06-19T13:08:01;33.90;99.90
36444;DHT22;24692;45.642;13.806;2023-06-19T13:10:27;34.10;99.90
36444;DHT22;24692;45.642;13.806;2023-06-19T13:12:52;32.90;99.90
36444;DHT22;24692;45.642;13.806;2023-06-19T13:15:18;33.30;99.90
36444;DHT22;24692;45.642;13.806;2023-06-19T13:17:44;33.10;99.90
36444;DHT22;24692;45.642;13.806;2023-06-19T13:20:10;32.60;99.90
36444;DHT22;24692;45.642;13.806;2023-06-19T13:22:35;32.20;99.90
36444;DHT22;24692;45.642;13.806;2023-06-19T13:25:01;32.90;99.90
36444;DHT22;24692;45.642;13.806;2023-06-19T13:27:27;33.10;99.90
36444;DHT22;24692;45.642;13.806;2023-06-19T13:29:54;32.60;99.90
36444;DHT22;24692;45.642;13.806;2023-06-19T13:32:20;33.60;99.90
36444;DHT22;24692;45.642;13.806;2023-06-19T13:34:45;33.50;99.90
36444;DHT22;24692;45.642;13.806;2023-06-19T13:37:11;33.20;99.90
36444;DHT22;24692;45.642;13.806;2023-06-19T13:39:37;33.50;99.90
36444;DHT22;24692;45.642;13.806;2023-06-19T13:42:03;33.30;99.90
36444;DHT22;24692;45.642;13.806;2023-06-19T13:44:29;33.70;99.90
36444;DHT22;24692;45.642;13.806;2023-06-19T13:46:55;33.70;99.90
36444;DHT22;24692;45.642;13.806;2023-06-19T13:49:20;33.40;99.90
36444;DHT22;24692;45.642;13.806;2023-06-19T13:51:47;32.40;99.90
36444;DHT22;24692;45.642;13.806;2023-06-19T13:54:13;33.10;99.90
36444;DHT22;24692;45.642;13.806;2023-06-19T13:56:39;32.60;99.90
36444;DHT22;24692;45.642;13.806;2023-06-19T13:59:06;33.10;99.90
36444;DHT22;24692;45.642;13.806;2023-06-19T14:01:32;33.40;99.90
36444;DHT22;24692;45.642;13.806;2023-06-19T14:03:58;34.10;99.90
36444;DHT22;24692;45.642;13.806;2023-06-19T14:06:24;33.60;99.90
36444;DHT22;24692;45.642;13.806;2023-06-19T14:08:50;31.40;99.90
36444;DHT22;24692;45.642;13.806;2023-06-19T14:11:17;31.90;99.90
36444;DHT22;24692;45.642;13.806;2023-06-19T14:13:42;31.60;99.90
36444;DHT22;24692;45.642;13.806;2023-06-19T14:16:08;31.80;99.90
36444;DHT22;24692;45.642;13.806;2023-06-19T14:18:33;32.60;99.90
36444;DHT22;24692;45.642;13.806;2023-06-19T14:21:02;32.60;99.90
36444;DHT22;24692;45.642;13.806;2023-06-19T14:23:27;32.10;99.90
36444;DHT22;24692;45.642;13.806;2023-06-19T14:25:53;32.70;99.90
36444;DHT22;24692;45.642;13.806;2023-06-19T14:28:19;33.30;99.90
36444;DHT22;24692;45.642;13.806;2023-06-19T14:30:44;33.20;99.90
36444;DHT22;24692;45.642;13.806;2023-06-19T14:33:10;32.90;99.90
36444;DHT22;24692;45.642;13.806;2023-06-19T14:35:41;33.00;99.90
36444;DHT22;24692;45.642;13.806;2023-06-19T14:38:07;33.00;99.90
36444;DHT22;24692;45.642;13.806;2023-06-19T14:40:32;32.10;99.90
36444;DHT22;24692;45.642;13.806;2023-06-19T14:42:58;32.20;99.90
36444;DHT22;24692;45.642;13.806;2023-06-19T14:45:23;31.00;99.90
36444;DHT22;24692;45.642;13.806;2023-06-19T14:47:49;31.80;99.90
36444;DHT22;24692;45.642;13.806;2023-06-19T14:50:15;32.60;99.90
36444;DHT22;24692;45.642;13.806;2023-06-19T14:52:41;32.10;99.90
36444;DHT22;24692;45.642;13.806;2023-06-19T14:55:07;32.60;99.90
36444;DHT22;24692;45.642;13.806;2023-06-19T14:57:32;32.40;99.90
36444;DHT22;24692;45.642;13.806;2023-06-19T14:59:58;32.40;99.90
36444;DHT22;24692;45.642;13.806;2023-06-19T15:02:24;33.00;99.90
36444;DHT22;24692;45.642;13.806;2023-06-19T15:04:49;33.20;99.90
36444;DHT22;24692;45.642;13.806;2023-06-19T15:07:15;32.90;99.90
36444;DHT22;24692;45.642;13.806;2023-06-19T15:09:40;32.40;99.90
36444;DHT22;24692;45.642;13.806;2023-06-19T15:12:06;32.00;99.90
36444;DHT22;24692;45.642;13.806;2023-06-19T15:14:32;32.00;99.90
36444;DHT22;24692;45.642;13.806;2023-06-19T15:16:59;32.00;99.90
36444;DHT22;24692;45.642;13.806;2023-06-19T15:19:24;31.80;99.90
36444;DHT22;24692;45.642;13.806;2023-06-19T15:21:50;31.60;99.90